Time;durP1;ratioP1;P1;durP2;ratioP2;P2;SDS_P1;SDS_P2;PMS_P1;PMS_P2;Temp;Humidity;BMP_temperature;BMP_pressure;BME280_temperature;BME280_humidity;BME280_pressure;Samples;Min_cycle;Max_cycle;Signal;HPM_P1;HPM_P2
2022/03/09 00:00:49;;;;;;;28.02;8.30;;;-4.50;99.90;;;;;;4893840;29;20474;-73
2022/03/09 00:03:15;;;;;;;27.10;8.88;;;-4.50;99.90;;;;;;4907641;29;20480;-74
2022/03/09 00:05:41;;;;;;;27.55;10.43;;;-4.40;99.90;;;;;;4892990;29;20134;-72
2022/03/09 00:08:07;;;;;;;24.55;9.10;;;-4.40;99.90;;;;;;4893583;29;20096;-75
2022/03/09 00:10:33;;;;;;;29.58;10.57;;;-2.10;99.90;;;;;;4907393;29;20037;-74
2022/03/09 00:12:59;;;;;;;26.50;8.98;;;-3.80;99.90;;;;;;4893018;29;20296;-72
2022/03/09 00:15:25;;;;;;;28.50;10.52;;;-4.20;99.90;;;;;;4907569;29;20059;-74
2022/03/09 00:17:50;;;;;;;19.92;8.88;;;-4.20;99.90;;;;;;4893003;29;20347;-72
2022/03/09 00:20:16;;;;;;;27.73;9.32;;;-2.90;99.90;;;;;;4893050;29;20028;-72
2022/03/09 00:22:42;;;;;;;29.88;10.63;;;-4.30;99.90;;;;;;4893301;29;20051;-72
2022/03/09 00:25:08;;;;;;;25.02;8.68;;;-4.50;99.90;;;;;;4892981;29;20029;-73
2022/03/09 00:27:34;;;;;;;24.30;8.65;;;-3.90;99.90;;;;;;4893008;29;20028;-73
2022/03/09 00:30:01;;;;;;;25.92;9.52;;;-3.60;99.90;;;;;;4893294;29;20083;-73
2022/03/09 00:32:27;;;;;;;27.17;10.00;;;-3.30;99.90;;;;;;4891473;29;20084;-72
2022/03/09 00:34:53;;;;;;;22.48;9.38;;;-4.20;99.90;;;;;;4893349;29;20072;-71
2022/03/09 00:37:19;;;;;;;24.20;8.27;;;-3.50;99.90;;;;;;4893272;29;20480;-74
2022/03/09 00:39:45;;;;;;;23.90;9.07;;;-4.40;99.90;;;;;;4893505;29;20093;-71
2022/03/09 00:42:10;;;;;;;32.90;9.52;;;-4.50;99.90;;;;;;4893367;29;20057;-79
2022/03/09 00:44:36;;;;;;;24.92;8.45;;;-4.50;99.90;;;;;;4880319;29;20601;-75
2022/03/09 00:47:02;;;;;;;23.95;10.30;;;-4.60;99.90;;;;;;4873836;29;20040;-74
2022/03/09 00:49:28;;;;;;;21.05;7.93;;;-4.60;99.90;;;;;;4874268;29;20033;-71
2022/03/09 00:51:53;;;;;;;25.02;9.13;;;-4.70;99.90;;;;;;4874364;29;20041;-78
2022/03/09 00:54:19;;;;;;;29.63;9.15;;;-3.70;99.90;;;;;;4873282;29;20645;-77
2022/03/09 00:56:45;;;;;;;31.70;10.85;;;-4.10;99.90;;;;;;4873672;29;20040;-77
2022/03/09 00:59:11;;;;;;;27.00;10.23;;;-3.40;99.90;;;;;;4873569;29;20124;-77
2022/03/09 01:01:36;;;;;;;26.77;11.02;;;-4.40;99.90;;;;;;4873866;29;20103;-78
2022/03/09 01:04:02;;;;;;;24.95;9.65;;;-3.50;99.90;;;;;;4873909;29;20189;-75
2022/03/09 01:06:28;;;;;;;25.23;9.30;;;-3.90;99.90;;;;;;4887759;29;20333;-77
2022/03/09 01:08:54;;;;;;;26.90;10.75;;;-3.30;99.90;;;;;;4874163;29;20077;-77
2022/03/09 01:11:20;;;;;;;24.40;9.68;;;-3.50;99.90;;;;;;4873727;29;20029;-76
2022/03/09 01:13:46;;;;;;;28.05;9.65;;;-3.80;99.90;;;;;;4887760;29;20045;-78
2022/03/09 01:16:12;;;;;;;30.15;10.23;;;-3.50;99.90;;;;;;4872172;29;20029;-76
2022/03/09 01:18:37;;;;;;;28.80;9.35;;;-4.90;99.90;;;;;;4887657;29;20077;-76
2022/03/09 01:21:03;;;;;;;31.02;11.30;;;-3.40;99.90;;;;;;4873526;29;20025;-72
2022/03/09 01:23:29;;;;;;;24.42;9.77;;;-3.80;99.90;;;;;;4874807;29;20039;-77
2022/03/09 01:25:55;;;;;;;28.40;10.02;;;-3.60;99.90;;;;;;4873897;29;20363;-78
2022/03/09 01:28:21;;;;;;;30.88;9.30;;;-4.80;99.90;;;;;;4873684;29;20500;-77
2022/03/09 01:30:46;;;;;;;31.80;10.18;;;-5.00;99.90;;;;;;4887718;29;20061;-77
2022/03/09 01:33:12;;;;;;;29.08;12.00;;;-4.00;99.90;;;;;;4872841;29;20029;-76
2022/03/09 01:35:38;;;;;;;25.52;9.32;;;-4.80;99.90;;;;;;4873340;29;20032;-76
2022/03/09 01:38:03;;;;;;;33.53;11.10;;;-4.80;99.90;;;;;;4887802;29;20108;-77
2022/03/09 01:40:29;;;;;;;25.58;9.88;;;-3.80;99.90;;;;;;4873282;29;20063;-77
2022/03/09 01:42:55;;;;;;;25.15;9.55;;;-5.00;99.90;;;;;;4873414;29;20470;-78
2022/03/09 01:45:21;;;;;;;21.25;9.32;;;-3.80;99.90;;;;;;4891235;29;20058;-77
2022/03/09 01:47:48;;;;;;;24.38;9.60;;;-5.10;99.90;;;;;;4891864;29;20029;-77
2022/03/09 01:50:14;;;;;;;27.13;9.57;;;-5.10;99.90;;;;;;4891650;29;20036;-77
2022/03/09 01:52:41;;;;;;;32.00;10.05;;;-5.10;99.90;;;;;;4891246;29;20051;-74
2022/03/09 01:55:07;;;;;;;33.28;10.23;;;-4.00;99.90;;;;;;4890240;29;20056;-74
2022/03/09 01:57:33;;;;;;;29.17;12.90;;;-5.00;99.90;;;;;;4906156;29;20028;-77
2022/03/09 02:00:00;;;;;;;25.27;9.73;;;-4.90;99.90;;;;;;4892135;29;20426;-77
2022/03/09 02:02:26;;;;;;;29.73;10.07;;;-4.90;99.90;;;;;;4905834;29;20029;-78
2022/03/09 02:04:52;;;;;;;30.98;10.07;;;-4.00;99.90;;;;;;4891526;29;20062;-77
2022/03/09 02:07:17;;;;;;;28.42;11.25;;;-2.80;99.90;;;;;;4891169;29;20033;-77
2022/03/09 02:09:44;;;;;;;31.25;11.82;;;-3.60;99.90;;;;;;4906009;29;20313;-77
2022/03/09 02:12:19;;;;;;;27.70;9.90;;;-5.20;99.90;;;;;;4905384;29;20066;-77
2022/03/09 02:14:50;;;;;;;30.88;9.48;;;-5.10;99.90;;;;;;4891432;29;20037;-77
2022/03/09 02:17:21;;;;;;;27.70;9.50;;;-5.20;99.90;;;;;;4906026;29;20024;-77
2022/03/09 02:19:49;;;;;;;30.92;10.18;;;-5.20;99.90;;;;;;4891309;29;20028;-76
2022/03/09 02:22:29;;;;;;;24.92;10.10;;;-5.20;99.90;;;;;;4905646;29;20036;-76
2022/03/09 02:24:54;;;;;;;26.90;10.07;;;-5.20;99.90;;;;;;4905834;29;20029;-78
2022/03/09 02:27:21;;;;;;;27.58;9.90;;;-5.20;99.90;;;;;;4905531;29;20068;-77
2022/03/09 02:29:48;;;;;;;32.33;10.60;;;-3.90;99.90;;;;;;4891095;29;20056;-74
2022/03/09 02:32:14;;;;;;;29.27;11.38;;;-5.30;99.90;;;;;;4891054;29;20035;-74
2022/03/09 02:34:39;;;;;;;24.23;10.23;;;-5.40;99.90;;;;;;4890784;29;20413;-73
2022/03/09 02:37:05;;;;;;;28.65;9.13;;;-5.60;99.90;;;;;;4905105;29;20044;-76
2022/03/09 02:39:31;;;;;;;26.88;8.45;;;-5.30;99.90;;;;;;4891175;29;20032;-76
2022/03/09 02:41:57;;;;;;;27.38;9.93;;;-5.40;99.90;;;;;;4890724;29;20021;-76
2022/03/09 02:44:23;;;;;;;26.45;9.43;;;-5.30;99.90;;;;;;4881355;29;20466;-76
2022/03/09 02:46:49;;;;;;;30.40;11.52;;;-5.30;99.90;;;;;;4875735;29;20021;-76
2022/03/09 02:49:15;;;;;;;34.30;10.60;;;-4.10;99.90;;;;;;4875557;29;20290;-78
2022/03/09 02:51:40;;;;;;;16.85;8.98;;;-4.10;99.90;;;;;;4890199;29;20029;-76
2022/03/09 02:54:06;;;;;;;37.38;10.73;;;-3.80;99.90;;;;;;4875378;29;20136;-74
2022/03/09 02:56:32;;;;;;;23.65;9.23;;;-3.50;99.90;;;;;;4875578;29;20033;-77
2022/03/09 02:58:58;;;;;;;25.17;9.63;;;-4.70;99.90;;;;;;4875217;29;20124;-77
2022/03/09 03:01:24;;;;;;;30.35;10.02;;;-4.70;99.90;;;;;;4875639;29;20032;-76
2022/03/09 03:03:49;;;;;;;27.67;10.15;;;-5.10;99.90;;;;;;4875978;29;20033;-77
2022/03/09 03:06:15;;;;;;;24.25;8.60;;;-5.20;99.90;;;;;;4875224;29;20029;-77
2022/03/09 03:08:41;;;;;;;24.73;8.98;;;-5.40;99.90;;;;;;4875332;29;20055;-77
2022/03/09 03:11:09;;;;;;;25.95;9.48;;;-5.40;99.90;;;;;;4875292;29;20037;-76
2022/03/09 03:13:36;;;;;;;28.90;8.88;;;-4.50;99.90;;;;;;4873544;29;20136;-76
2022/03/09 03:16:01;;;;;;;28.02;9.98;;;-4.00;99.90;;;;;;4875056;29;20028;-75
2022/03/09 03:18:27;;;;;;;30.08;9.68;;;-3.30;99.90;;;;;;4875120;29;20033;-77
2022/03/09 03:20:54;;;;;;;25.10;10.15;;;-4.10;99.90;;;;;;4889349;29;20132;-76
2022/03/09 03:23:22;;;;;;;26.17;9.98;;;-5.50;99.90;;;;;;4889157;29;20029;-78
2022/03/09 03:25:48;;;;;;;29.48;11.27;;;-3.80;99.90;;;;;;4875261;29;20536;-77
2022/03/09 03:28:14;;;;;;;27.65;10.43;;;-5.50;99.90;;;;;;4874840;29;20468;-76
2022/03/09 03:30:39;;;;;;;22.25;9.50;;;-4.30;99.90;;;;;;4874703;29;20044;-76
2022/03/09 03:33:05;;;;;;;30.35;9.02;;;-4.70;99.90;;;;;;4874644;29;20037;-76
2022/03/09 03:35:31;;;;;;;32.05;10.88;;;-5.50;99.90;;;;;;4888932;29;20036;-76
2022/03/09 03:37:57;;;;;;;32.05;10.07;;;-5.60;99.90;;;;;;4889096;29;20411;-77
2022/03/09 03:40:22;;;;;;;31.40;9.95;;;-3.70;99.90;;;;;;4888774;29;20149;-76
2022/03/09 03:42:48;;;;;;;32.35;10.55;;;-5.70;99.90;;;;;;4888884;29;20033;-76
2022/03/09 03:45:14;;;;;;;30.27;9.32;;;-5.70;99.90;;;;;;4891678;29;20031;-78
2022/03/09 03:47:39;;;;;;;26.50;9.23;;;-5.60;99.90;;;;;;4893548;29;20020;-75
2022/03/09 03:50:05;;;;;;;27.85;10.55;;;-5.60;99.90;;;;;;4892618;29;20040;-76
2022/03/09 03:52:31;;;;;;;28.48;9.55;;;-5.70;99.90;;;;;;4893455;29;20618;-79
2022/03/09 03:54:57;;;;;;;23.80;9.07;;;-5.70;99.90;;;;;;4892597;29;20085;-76
2022/03/09 03:57:22;;;;;;;32.33;10.88;;;-5.00;99.90;;;;;;4907071;29;20484;-75
2022/03/09 03:59:48;;;;;;;26.45;9.00;;;-5.60;99.90;;;;;;4891844;29;20398;-76
2022/03/09 04:02:14;;;;;;;33.00;9.70;;;-4.40;99.90;;;;;;4907163;29;20029;-76
2022/03/09 04:04:39;;;;;;;25.25;8.68;;;-4.00;99.90;;;;;;4893565;29;20048;-77
2022/03/09 04:07:06;;;;;;;25.30;10.80;;;-3.40;99.90;;;;;;4892857;29;20180;-76
2022/03/09 04:09:31;;;;;;;31.10;9.45;;;-5.60;99.90;;;;;;4892969;29;20647;-76
2022/03/09 04:11:57;;;;;;;25.63;8.48;;;-3.70;99.90;;;;;;4893021;29;20203;-76
2022/03/09 04:14:22;;;;;;;31.90;11.18;;;-5.60;99.90;;;;;;4892435;29;20405;-75
2022/03/09 04:16:49;;;;;;;27.33;8.77;;;-5.50;99.90;;;;;;4892994;29;20050;-78
2022/03/09 04:19:15;;;;;;;30.02;10.82;;;-5.30;99.90;;;;;;4892755;29;20028;-77
2022/03/09 04:21:41;;;;;;;29.63;9.60;;;-5.20;99.90;;;;;;4892558;29;20434;-76
2022/03/09 04:24:07;;;;;;;30.00;11.15;;;-3.80;99.90;;;;;;4892634;29;20082;-76
2022/03/09 04:26:33;;;;;;;32.03;11.23;;;-3.20;99.90;;;;;;4891457;29;20394;-76
2022/03/09 04:29:02;;;;;;;27.52;9.48;;;-3.60;99.90;;;;;;4892294;29;20087;-75
2022/03/09 04:31:28;;;;;;;20.80;9.38;;;-4.50;99.90;;;;;;4892569;29;20055;-75
2022/03/09 04:33:54;;;;;;;31.88;11.18;;;-5.10;99.90;;;;;;4892276;29;20045;-77
2022/03/09 04:36:19;;;;;;;33.25;11.13;;;-4.10;99.90;;;;;;4891019;29;20066;-75
2022/03/09 04:38:45;;;;;;;25.75;10.73;;;-5.40;99.90;;;;;;4892452;29;20072;-83
2022/03/09 04:41:11;;;;;;;25.33;9.45;;;-5.30;99.90;;;;;;4907135;29;20032;-78
2022/03/09 04:43:37;;;;;;;37.00;11.50;;;-4.60;99.90;;;;;;4887597;29;20049;-78
2022/03/09 04:46:02;;;;;;;29.20;10.52;;;-5.10;99.90;;;;;;4888161;29;20347;-77
2022/03/09 04:48:28;;;;;;;30.23;10.30;;;-4.70;99.90;;;;;;4887348;29;20029;-77
2022/03/09 04:50:54;;;;;;;36.47;9.38;;;-5.10;99.90;;;;;;4873662;29;20037;-79
2022/03/09 04:53:19;;;;;;;30.17;10.65;;;-4.20;99.90;;;;;;4873799;29;20037;-77
2022/03/09 04:55:45;;;;;;;25.38;8.63;;;-4.40;99.90;;;;;;4873366;29;20081;-76
2022/03/09 04:58:11;;;;;;;31.30;9.60;;;-5.20;99.90;;;;;;4873449;29;20033;-76
2022/03/09 05:00:37;;;;;;;39.45;12.05;;;-4.20;99.90;;;;;;4873603;29;20033;-76
2022/03/09 05:03:03;;;;;;;29.50;10.00;;;-4.10;99.90;;;;;;4888908;29;20048;-77
2022/03/09 05:05:29;;;;;;;29.42;10.70;;;-5.40;99.90;;;;;;4873201;29;20391;-77
2022/03/09 05:07:54;;;;;;;30.67;10.65;;;-5.40;99.90;;;;;;4872747;29;20032;-77
2022/03/09 05:10:20;;;;;;;29.35;10.00;;;-5.40;99.90;;;;;;4873186;29;20029;-77
2022/03/09 05:12:46;;;;;;;31.57;10.63;;;-5.40;99.90;;;;;;4872896;29;20047;-76
2022/03/09 05:15:11;;;;;;;30.50;9.98;;;-5.20;99.90;;;;;;4873488;29;20033;-77
2022/03/09 05:17:42;;;;;;;25.70;10.63;;;-5.30;99.90;;;;;;4873484;29;20029;-75
2022/03/09 05:20:08;;;;;;;30.02;10.65;;;-3.20;99.90;;;;;;4873067;29;20428;-73
2022/03/09 05:22:34;;;;;;;39.03;12.55;;;-5.10;99.90;;;;;;4886456;29;20418;-75
2022/03/09 05:24:59;;;;;;;26.73;11.38;;;-4.90;99.90;;;;;;4872152;29;20033;-75
2022/03/09 05:27:28;;;;;;;31.25;11.00;;;-4.90;99.90;;;;;;4872704;29;20033;-75
2022/03/09 05:29:54;;;;;;;25.20;9.77;;;-2.70;99.90;;;;;;4886233;29;20387;-76
2022/03/09 05:32:20;;;;;;;33.05;10.27;;;-3.60;99.90;;;;;;4872526;29;20080;-77
2022/03/09 05:34:47;;;;;;;33.30;10.05;;;-4.80;99.90;;;;;;4872416;29;20069;-77
2022/03/09 05:37:13;;;;;;;30.27;9.82;;;-4.80;99.90;;;;;;4872451;29;20170;-77
2022/03/09 05:39:39;;;;;;;32.45;10.60;;;-3.00;99.90;;;;;;4886432;29;20051;-72
2022/03/09 05:42:05;;;;;;;31.60;10.00;;;-5.30;99.90;;;;;;4886042;29;20037;-78
2022/03/09 05:44:30;;;;;;;29.95;10.75;;;-5.40;99.90;;;;;;4897758;29;20025;-78
2022/03/09 05:46:57;;;;;;;28.65;11.25;;;-3.00;99.90;;;;;;4905774;29;20044;-77
2022/03/09 05:49:23;;;;;;;30.08;9.68;;;-5.50;99.90;;;;;;4890866;29;20108;-77
2022/03/09 05:51:49;;;;;;;32.90;12.10;;;-4.10;99.90;;;;;;4891653;29;20074;-72
2022/03/09 05:54:15;;;;;;;34.78;10.48;;;-5.50;99.90;;;;;;4891252;29;20044;-77
2022/03/09 05:56:41;;;;;;;29.17;10.25;;;-5.50;99.90;;;;;;4891203;29;20189;-76
2022/03/09 05:59:07;;;;;;;31.88;10.35;;;-5.00;99.90;;;;;;4905878;29;20041;-76
2022/03/09 06:01:33;;;;;;;25.33;9.80;;;-3.10;99.90;;;;;;4905215;29;20021;-74
2022/03/09 06:03:59;;;;;;;33.47;11.43;;;-4.30;99.90;;;;;;4905524;29;20367;-74
2022/03/09 06:06:24;;;;;;;38.00;11.35;;;-5.30;99.90;;;;;;4889799;29;20084;-74
2022/03/09 06:08:50;;;;;;;30.17;11.07;;;-5.20;99.90;;;;;;4890711;29;20440;-72
2022/03/09 06:11:16;;;;;;;32.70;10.82;;;-5.00;99.90;;;;;;4890149;29;20033;-73
2022/03/09 06:13:41;;;;;;;27.92;11.60;;;-5.00;99.90;;;;;;4905289;29;20053;-72
2022/03/09 06:16:07;;;;;;;32.72;10.60;;;-5.00;99.90;;;;;;4905136;29;20482;-72
2022/03/09 06:18:33;;;;;;;32.65;11.60;;;-5.10;99.90;;;;;;4906451;29;20033;-72
2022/03/09 06:20:59;;;;;;;33.92;12.02;;;-5.10;99.90;;;;;;4892909;29;20431;-74
2022/03/09 06:23:24;;;;;;;31.73;11.95;;;-5.10;99.90;;;;;;4894178;29;20153;-74
2022/03/09 06:25:50;;;;;;;36.72;12.70;;;-4.40;99.90;;;;;;4894943;29;20089;-77
2022/03/09 06:28:16;;;;;;;26.55;11.88;;;-3.90;99.90;;;;;;4897645;29;20044;-72
2022/03/09 06:30:42;;;;;;;30.48;13.07;;;-4.90;99.90;;;;;;4894875;29;20032;-72
2022/03/09 06:33:07;;;;;;;30.60;12.65;;;-4.80;99.90;;;;;;4894959;29;20529;-73
2022/03/09 06:35:33;;;;;;;31.55;11.93;;;-4.40;99.90;;;;;;4894495;29;20037;-72
2022/03/09 06:37:59;;;;;;;38.30;12.88;;;-3.30;99.90;;;;;;4895055;29;20430;-75
2022/03/09 06:40:25;;;;;;;38.88;13.73;;;-3.50;99.90;;;;;;4894743;29;20059;-72
2022/03/09 06:42:51;;;;;;;34.22;13.32;;;-3.80;99.90;;;;;;4893846;29;20044;-73
2022/03/09 06:45:17;;;;;;;31.92;11.45;;;-4.00;99.90;;;;;;4891676;29;20061;-79
2022/03/09 06:47:43;;;;;;;31.30;11.80;;;-3.00;99.90;;;;;;4874640;29;20139;-73
2022/03/09 06:50:10;;;;;;;33.03;10.82;;;-4.20;99.90;;;;;;4875432;29;20040;-74
2022/03/09 06:52:36;;;;;;;35.42;12.57;;;-3.10;99.90;;;;;;4889507;29;20026;-79
2022/03/09 06:55:03;;;;;;;30.17;11.90;;;-3.90;99.90;;;;;;4894202;29;20064;-76
2022/03/09 06:57:31;;;;;;;27.75;10.95;;;-4.10;99.90;;;;;;4886789;29;20025;-73
2022/03/09 06:59:56;;;;;;;33.67;12.23;;;-2.80;99.90;;;;;;4882741;29;20021;-72
2022/03/09 07:02:22;;;;;;;33.25;12.55;;;-3.30;99.90;;;;;;4876506;29;20093;-80
2022/03/09 07:04:48;;;;;;;35.63;11.50;;;-3.90;99.90;;;;;;4872923;29;20511;-74
2022/03/09 07:07:14;;;;;;;28.02;12.23;;;-3.70;99.90;;;;;;4874327;29;20037;-74
2022/03/09 07:09:40;;;;;;;45.03;15.15;;;-3.20;99.90;;;;;;4872997;29;20029;-74
2022/03/09 07:12:06;;;;;;;43.10;13.98;;;-3.00;99.90;;;;;;4884503;29;20211;-74
2022/03/09 07:14:31;;;;;;;34.58;13.00;;;-2.80;99.90;;;;;;4884488;29;20132;-74
2022/03/09 07:16:57;;;;;;;28.83;11.82;;;-2.50;99.90;;;;;;4886656;29;20017;-76
2022/03/09 07:19:23;;;;;;;38.65;14.90;;;-2.20;99.90;;;;;;4886967;29;20437;-76
2022/03/09 07:21:49;;;;;;;32.90;12.82;;;-1.40;99.90;;;;;;4887144;29;20044;-78
2022/03/09 07:24:14;;;;;;;31.77;12.77;;;-1.80;99.90;;;;;;4897172;29;20060;-79
2022/03/09 07:26:42;;;;;;;36.75;14.15;;;-0.50;99.90;;;;;;4876462;29;20085;-76
2022/03/09 07:29:09;;;;;;;37.80;13.88;;;-1.60;99.90;;;;;;4876852;29;20028;-74
2022/03/09 07:31:35;;;;;;;35.78;15.43;;;-0.90;99.90;;;;;;4879880;29;20160;-75
2022/03/09 07:34:01;;;;;;;46.65;15.63;;;-1.50;99.90;;;;;;4872631;29;20044;-75
2022/03/09 07:36:27;;;;;;;35.28;15.50;;;-1.40;99.90;;;;;;4898553;29;20206;-75
2022/03/09 07:38:52;;;;;;;41.60;15.32;;;-1.30;99.90;;;;;;4901790;29;20040;-75
2022/03/09 07:41:18;;;;;;;47.00;16.45;;;-1.30;99.90;;;;;;4882871;29;20242;-75
2022/03/09 07:43:44;;;;;;;40.47;15.50;;;-0.20;99.90;;;;;;4883819;29;20028;-76
2022/03/09 07:46:09;;;;;;;37.75;16.13;;;-1.20;99.90;;;;;;4893260;29;20100;-74
2022/03/09 07:48:35;;;;;;;45.53;17.05;;;-1.00;99.90;;;;;;4893450;29;20057;-74
2022/03/09 07:51:01;;;;;;;55.05;20.75;;;-0.90;99.90;;;;;;4893252;29;20468;-74
2022/03/09 07:53:27;;;;;;;47.80;18.88;;;-0.70;99.90;;;;;;4892733;29;20086;-74
2022/03/09 07:55:52;;;;;;;48.13;18.17;;;-0.60;99.90;;;;;;4893492;29;20135;-78
2022/03/09 07:58:18;;;;;;;43.75;16.92;;;-0.50;99.90;;;;;;4893050;29;20446;-78
2022/03/09 08:00:44;;;;;;;45.70;19.38;;;-0.20;99.90;;;;;;4891946;29;20040;-77
2022/03/09 08:03:09;;;;;;;47.47;18.50;;;0.10;99.90;;;;;;4881500;29;20069;-80
2022/03/09 08:05:35;;;;;;;42.70;17.05;;;0.30;99.90;;;;;;4888907;29;20033;-74
2022/03/09 08:08:01;;;;;;;39.30;15.98;;;0.50;99.90;;;;;;4874533;29;20558;-74
2022/03/09 08:10:27;;;;;;;41.47;17.02;;;0.80;99.90;;;;;;4874105;29;20084;-74
2022/03/09 08:12:52;;;;;;;45.13;16.75;;;1.20;99.90;;;;;;4891487;29;20036;-76
2022/03/09 08:15:18;;;;;;;43.08;16.90;;;1.50;99.90;;;;;;4874003;29;20067;-76
2022/03/09 08:17:44;;;;;;;47.53;18.20;;;1.60;99.90;;;;;;4874183;29;20075;-75
2022/03/09 08:20:10;;;;;;;45.22;16.77;;;1.90;99.90;;;;;;4874984;29;20424;-78
2022/03/09 08:22:36;;;;;;;43.60;17.65;;;2.30;99.90;;;;;;4874252;29;20491;-74
2022/03/09 08:25:02;;;;;;;39.10;15.05;;;2.40;99.90;;;;;;4874550;29;20033;-77
2022/03/09 08:27:28;;;;;;;42.15;16.23;;;2.70;99.90;;;;;;4874180;29;20043;-79
2022/03/09 08:29:54;;;;;;;43.40;17.02;;;2.90;99.90;;;;;;4874366;29;20033;-80
2022/03/09 08:32:20;;;;;;;35.85;15.88;;;3.10;99.90;;;;;;4874375;29;20033;-75
2022/03/09 08:34:46;;;;;;;39.38;15.52;;;3.10;99.90;;;;;;4874303;29;20037;-74
2022/03/09 08:37:12;;;;;;;40.42;15.05;;;3.00;99.90;;;;;;4874092;29;20471;-74
2022/03/09 08:39:38;;;;;;;37.35;14.93;;;3.00;99.90;;;;;;4873776;29;20032;-76
2022/03/09 08:42:04;;;;;;;41.90;16.35;;;3.00;99.90;;;;;;4873862;29;20037;-74
2022/03/09 08:44:30;;;;;;;38.33;15.15;;;3.10;99.90;;;;;;4881747;29;20040;-74
2022/03/09 08:46:55;;;;;;;42.53;14.05;;;3.00;99.90;;;;;;4892051;29;20586;-74
2022/03/09 08:49:21;;;;;;;44.83;16.73;;;3.20;99.90;;;;;;4892506;29;20033;-74
2022/03/09 08:51:47;;;;;;;33.55;14.57;;;3.30;99.90;;;;;;4906628;29;20366;-74
2022/03/09 08:54:12;;;;;;;38.25;14.98;;;3.40;99.90;;;;;;4891882;29;20147;-74
2022/03/09 08:56:38;;;;;;;35.30;14.75;;;3.60;99.90;;;;;;4892187;29;20020;-75
2022/03/09 08:59:04;;;;;;;36.80;14.02;;;3.80;99.90;;;;;;4892631;29;20818;-75
2022/03/09 09:01:29;;;;;;;38.15;14.55;;;3.70;99.10;;;;;;4892211;29;20052;-74
2022/03/09 09:03:55;;;;;;;37.55;13.50;;;3.70;98.70;;;;;;4892600;29;20505;-75
2022/03/09 09:06:21;;;;;;;39.40;14.18;;;3.60;98.50;;;;;;4891733;29;20103;-74
2022/03/09 09:08:46;;;;;;;36.53;13.68;;;3.70;98.20;;;;;;4891363;29;20064;-75
2022/03/09 09:11:12;;;;;;;40.83;14.85;;;3.90;97.10;;;;;;4892125;29;20036;-76
2022/03/09 09:13:38;;;;;;;34.20;13.15;;;4.00;96.50;;;;;;4906001;29;20044;-75
2022/03/09 09:16:04;;;;;;;32.60;12.93;;;4.00;95.30;;;;;;4892287;29;20025;-75
2022/03/09 09:18:30;;;;;;;40.85;15.05;;;4.10;96.50;;;;;;4892095;29;20028;-75
2022/03/09 09:20:56;;;;;;;30.95;13.52;;;4.20;96.70;;;;;;4906163;29;20361;-75
2022/03/09 09:23:23;;;;;;;38.10;14.18;;;4.30;96.10;;;;;;4891886;29;20036;-74
2022/03/09 09:25:48;;;;;;;37.42;15.05;;;4.40;94.30;;;;;;4891816;29;20036;-75
2022/03/09 09:28:16;;;;;;;31.25;13.23;;;4.40;94.30;;;;;;4891380;29;20687;-75
2022/03/09 09:30:41;;;;;;;39.35;15.00;;;4.60;92.70;;;;;;4891582;29;20043;-75
2022/03/09 09:33:07;;;;;;;32.58;14.15;;;4.70;92.10;;;;;;4891977;29;20025;-75
2022/03/09 09:35:33;;;;;;;40.03;13.93;;;4.90;92.10;;;;;;4905575;29;20278;-74
2022/03/09 09:38:06;;;;;;;33.63;12.68;;;5.10;90.80;;;;;;4892041;29;20300;-76
2022/03/09 09:40:34;;;;;;;39.28;13.00;;;5.20;90.40;;;;;;4891468;29;20028;-75
2022/03/09 09:43:07;;;;;;;34.55;13.88;;;5.30;88.70;;;;;;4890853;29;20028;-74
2022/03/09 09:45:34;;;;;;;34.72;13.60;;;5.40;86.50;;;;;;4872605;29;20032;-74
2022/03/09 09:48:01;;;;;;;30.33;13.00;;;5.40;86.10;;;;;;4887439;29;20029;-75
2022/03/09 09:50:27;;;;;;;36.55;15.00;;;5.60;86.20;;;;;;4872840;29;20301;-75
2022/03/09 09:52:53;;;;;;;33.22;12.85;;;5.60;85.80;;;;;;4872796;29;20331;-75
2022/03/09 09:55:19;;;;;;;34.05;13.80;;;5.90;84.30;;;;;;4872498;29;20636;-74
2022/03/09 09:57:47;;;;;;;30.92;13.80;;;6.10;82.90;;;;;;4872100;29;20044;-76
2022/03/09 10:00:13;;;;;;;32.15;13.32;;;6.30;82.80;;;;;;4872654;29;20502;-75
2022/03/09 10:02:42;;;;;;;38.08;13.38;;;6.40;80.60;;;;;;4872532;29;20028;-75
2022/03/09 10:05:12;;;;;;;40.05;13.90;;;6.50;80.00;;;;;;4872461;29;20105;-74
2022/03/09 10:08:04;;;;;;;30.48;13.38;;;6.60;79.70;;;;;;4872819;29;20111;-77
2022/03/09 10:10:30;;;;;;;36.05;15.52;;;6.60;77.70;;;;;;4874474;29;20045;-79
2022/03/09 10:13:20;;;;;;;33.72;13.45;;;6.70;77.10;;;;;;4872683;29;20033;-74
2022/03/09 10:16:06;;;;;;;38.85;12.80;;;6.70;76.30;;;;;;4874428;29;20221;-74
2022/03/09 10:18:32;;;;;;;38.13;12.82;;;6.80;76.10;;;;;;4872142;29;20112;-74
2022/03/09 10:21:12;;;;;;;35.00;14.00;;;6.90;76.50;;;;;;4874245;29;20297;-75
2022/03/09 10:23:52;;;;;;;;;;;7.20;76.70;;;;;;4891206;29;20029;-75
2022/03/09 10:26:19;;;;;;;36.70;13.20;;;7.20;75.30;;;;;;4890609;29;19918;-75
2022/03/09 10:29:20;;;;;;;29.60;12.38;;;7.30;74.80;;;;;;4891201;29;20037;-74
2022/03/09 10:31:51;;;;;;;35.30;13.10;;;7.40;74.80;;;;;;4888313;29;20033;-74
2022/03/09 10:34:25;;;;;;;32.67;14.07;;;7.40;74.10;;;;;;4901277;29;20086;-75
2022/03/09 10:37:04;;;;;;;31.17;12.48;;;7.50;73.80;;;;;;4887813;29;20025;-75
2022/03/09 10:39:36;;;;;;;30.58;13.70;;;7.70;72.80;;;;;;4890481;29;20055;-75
2022/03/09 10:42:04;;;;;;;32.65;12.70;;;7.80;73.00;;;;;;4890688;29;20819;-75
2022/03/09 10:44:42;;;;;;;30.33;13.20;;;8.10;72.50;;;;;;4880002;29;20036;-75
2022/03/09 10:47:08;;;;;;;36.20;14.93;;;8.30;71.90;;;;;;4871946;29;20033;-75
2022/03/09 10:49:34;;;;;;;36.60;13.98;;;8.20;71.40;;;;;;4871956;29;20029;-76
2022/03/09 10:52:00;;;;;;;36.47;15.40;;;8.30;71.20;;;;;;4890135;29;20021;-76
2022/03/09 10:54:29;;;;;;;34.53;14.07;;;8.40;70.90;;;;;;4887345;29;20052;-75
2022/03/09 10:57:08;;;;;;;30.67;13.98;;;8.50;70.70;;;;;;4890254;29;20040;-75
2022/03/09 10:59:51;;;;;;;33.80;12.80;;;8.50;70.80;;;;;;4889681;29;20029;-75
2022/03/09 11:02:21;;;;;;;32.70;13.57;;;8.70;70.20;;;;;;4890552;29;20036;-76
2022/03/09 11:05:10;;;;;;;34.88;15.02;;;8.90;69.90;;;;;;4891525;29;20028;-76
2022/03/09 11:07:37;;;;;;;33.57;15.33;;;9.10;69.00;;;;;;4894046;29;20049;-75
2022/03/09 11:10:04;;;;;;;36.45;15.02;;;9.00;69.10;;;;;;4894130;29;20482;-76
2022/03/09 11:12:31;;;;;;;37.85;14.55;;;9.10;69.30;;;;;;4892466;29;20043;-76
2022/03/09 11:14:57;;;;;;;36.20;14.50;;;9.00;68.00;;;;;;4893826;29;20032;-75
2022/03/09 11:17:24;;;;;;;38.22;13.80;;;9.00;68.60;;;;;;4894054;29;20559;-76
2022/03/09 11:19:50;;;;;;;40.88;13.02;;;9.20;68.20;;;;;;4894212;29;20358;-76
2022/03/09 11:22:16;;;;;;;32.38;13.20;;;9.30;67.10;;;;;;4893693;29;20021;-75
2022/03/09 11:24:42;;;;;;;33.63;14.27;;;9.30;67.20;;;;;;4893154;29;20591;-75
2022/03/09 11:27:10;;;;;;;25.88;11.13;;;9.40;68.00;;;;;;4908596;29;20028;-75
2022/03/09 11:29:38;;;;;;;31.55;13.02;;;9.50;66.80;;;;;;4893426;29;20029;-75
2022/03/09 11:32:06;;;;;;;27.23;12.32;;;9.50;66.90;;;;;;4893908;29;20533;-75
2022/03/09 11:34:42;;;;;;;28.73;12.00;;;9.60;67.00;;;;;;4893690;29;20064;-74
2022/03/09 11:37:15;;;;;;;30.40;11.68;;;9.70;66.80;;;;;;4893776;29;20419;-75
2022/03/09 11:39:46;;;;;;;30.48;11.48;;;9.80;67.10;;;;;;4894224;29;20032;-75
2022/03/09 11:42:20;;;;;;;28.27;11.30;;;9.70;68.20;;;;;;4895560;29;20027;-74
2022/03/09 11:44:54;;;;;;;30.58;11.70;;;9.90;66.00;;;;;;4880320;29;20064;-75
2022/03/09 11:47:20;;;;;;;29.30;12.55;;;10.00;66.10;;;;;;4889394;29;20029;-75
2022/03/09 11:49:53;;;;;;;30.92;11.73;;;10.00;66.80;;;;;;4874583;29;20025;-75
2022/03/09 11:52:19;;;;;;;31.58;13.02;;;10.10;64.90;;;;;;4902043;29;20032;-75
2022/03/09 11:54:56;;;;;;;31.33;14.00;;;10.20;65.50;;;;;;4893205;29;20118;-75
2022/03/09 11:58:00;;;;;;;32.80;13.18;;;10.30;65.80;;;;;;4891754;29;20462;-75
2022/03/09 12:00:26;;;;;;;30.70;11.65;;;10.20;65.00;;;;;;4892984;29;20107;-75
2022/03/09 12:02:55;;;;;;;33.10;12.93;;;10.30;65.20;;;;;;4893067;29;20036;-75
2022/03/09 12:05:41;;;;;;;32.93;12.83;;;10.30;63.60;;;;;;4892916;29;20040;-76
2022/03/09 12:08:11;;;;;;;25.67;11.90;;;10.30;64.20;;;;;;4892814;29;20280;-75
2022/03/09 12:10:43;;;;;;;32.50;11.82;;;10.50;64.60;;;;;;4892540;29;20080;-75
2022/03/09 12:13:31;;;;;;;26.38;11.40;;;10.60;63.60;;;;;;4893289;29;20056;-76
2022/03/09 12:16:18;;;;;;;28.73;11.77;;;10.70;64.00;;;;;;4893053;29;20036;-74
2022/03/09 12:18:50;;;;;;;26.00;11.13;;;10.70;63.40;;;;;;4892986;29;20033;-74
2022/03/09 12:21:26;;;;;;;29.02;12.23;;;10.70;63.10;;;;;;4892854;29;20556;-75
2022/03/09 12:24:00;;;;;;;29.50;11.68;;;11.00;64.70;;;;;;4893004;29;20032;-75
2022/03/09 12:26:48;;;;;;;28.50;12.48;;;11.30;63.50;;;;;;4892514;29;20028;-75
2022/03/09 12:29:26;;;;;;;24.92;10.43;;;12.00;62.00;;;;;;4893172;29;20496;-75
2022/03/09 12:32:14;;;;;;;24.33;10.70;;;12.40;60.50;;;;;;4892979;29;20049;-77
2022/03/09 12:34:44;;;;;;;20.23;9.02;;;13.20;58.30;;;;;;4892620;29;20127;-75